sensor_id;sensor_type;location;lat;lon;timestamp;pressure;altitude;pressure_sealevel;temperature;humidity
71476;BME280;59286;59.274;17.974;2023-04-25T00:01:38;99816.19;;;3.84;96.17
71476;BME280;59286;59.274;17.974;2023-04-25T00:04:03;99822.94;;;3.80;96.27
71476;BME280;59286;59.274;17.974;2023-04-25T00:06:31;99809.22;;;3.74;96.53
71476;BME280;59286;59.274;17.974;2023-04-25T00:08:56;99796.88;;;3.61;97.50
71476;BME280;59286;59.274;17.974;2023-04-25T00:11:22;99815.75;;;3.67;97.45
71476;BME280;59286;59.274;17.974;2023-04-25T00:13:48;99810.09;;;3.55;97.53
71476;BME280;59286;59.274;17.974;2023-04-25T00:16:14;99816.81;;;3.61;98.04
71476;BME280;59286;59.274;17.974;2023-04-25T00:18:41;99801.53;;;3.54;98.57
71476;BME280;59286;59.274;17.974;2023-04-25T00:21:07;99807.50;;;3.60;98.56
71476;BME280;59286;59.274;17.974;2023-04-25T00:23:33;99807.00;;;3.58;98.22
71476;BME280;59286;59.274;17.974;2023-04-25T00:26:02;99810.38;;;3.53;99.42
71476;BME280;59286;59.274;17.974;2023-04-25T00:28:27;99794.88;;;3.43;99.43
71476;BME280;59286;59.274;17.974;2023-04-25T00:30:53;99803.47;;;3.39;99.57
71476;BME280;59286;59.274;17.974;2023-04-25T00:33:18;99797.97;;;3.45;99.59
71476;BME280;59286;59.274;17.974;2023-04-25T00:35:44;99797.72;;;3.42;99.91
71476;BME280;59286;59.274;17.974;2023-04-25T00:38:09;99788.47;;;3.31;100.00
71476;BME280;59286;59.274;17.974;2023-04-25T00:40:35;99784.53;;;3.38;99.91
71476;BME280;59286;59.274;17.974;2023-04-25T00:43:00;99798.75;;;3.46;100.00
71476;BME280;59286;59.274;17.974;2023-04-25T00:45:29;99800.31;;;3.42;99.77
71476;BME280;59286;59.274;17.974;2023-04-25T00:47:55;99803.44;;;3.44;100.00
71476;BME280;59286;59.274;17.974;2023-04-25T00:50:20;99790.47;;;3.44;100.00
71476;BME280;59286;59.274;17.974;2023-04-25T00:52:46;99780.66;;;3.41;100.00
71476;BME280;59286;59.274;17.974;2023-04-25T00:55:12;99779.09;;;3.40;100.00
71476;BME280;59286;59.274;17.974;2023-04-25T00:57:37;99779.31;;;3.43;100.00
71476;BME280;59286;59.274;17.974;2023-04-25T01:00:07;99785.06;;;3.40;100.00
71476;BME280;59286;59.274;17.974;2023-04-25T01:02:35;99796.94;;;3.41;100.00
71476;BME280;59286;59.274;17.974;2023-04-25T01:05:02;99782.72;;;3.39;100.00
71476;BME280;59286;59.274;17.974;2023-04-25T01:07:28;99762.81;;;3.34;100.00
71476;BME280;59286;59.274;17.974;2023-04-25T01:09:54;99743.13;;;3.33;100.00
71476;BME280;59286;59.274;17.974;2023-04-25T01:12:19;99729.91;;;3.35;100.00
71476;BME280;59286;59.274;17.974;2023-04-25T01:14:45;99710.22;;;3.39;100.00
71476;BME280;59286;59.274;17.974;2023-04-25T01:17:11;99708.47;;;3.29;100.00
71476;BME280;59286;59.274;17.974;2023-04-25T01:19:37;99730.69;;;3.35;100.00
71476;BME280;59286;59.274;17.974;2023-04-25T01:22:03;99717.75;;;3.35;100.00
71476;BME280;59286;59.274;17.974;2023-04-25T01:24:29;99738.97;;;3.37;100.00
71476;BME280;59286;59.274;17.974;2023-04-25T01:26:55;99733.50;;;3.44;100.00
71476;BME280;59286;59.274;17.974;2023-04-25T01:29:21;99721.84;;;3.41;100.00
71476;BME280;59286;59.274;17.974;2023-04-25T01:31:47;99711.97;;;3.43;100.00
71476;BME280;59286;59.274;17.974;2023-04-25T01:34:13;99727.25;;;3.50;100.00
71476;BME280;59286;59.274;17.974;2023-04-25T01:36:39;99737.88;;;3.43;100.00
71476;BME280;59286;59.274;17.974;2023-04-25T01:39:04;99745.91;;;3.47;100.00
71476;BME280;59286;59.274;17.974;2023-04-25T01:41:30;99733.25;;;3.40;100.00
71476;BME280;59286;59.274;17.974;2023-04-25T01:43:56;99742.28;;;3.48;100.00
71476;BME280;59286;59.274;17.974;2023-04-25T01:46:21;99747.16;;;3.54;100.00
71476;BME280;59286;59.274;17.974;2023-04-25T01:48:47;99735.78;;;3.50;100.00
71476;BME280;59286;59.274;17.974;2023-04-25T01:51:12;99734.50;;;3.48;100.00
71476;BME280;59286;59.274;17.974;2023-04-25T01:53:38;99731.69;;;3.44;100.00
71476;BME280;59286;59.274;17.974;2023-04-25T01:56:04;99720.81;;;3.42;100.00
71476;BME280;59286;59.274;17.974;2023-04-25T01:58:30;99706.34;;;3.36;100.00
71476;BME280;59286;59.274;17.974;2023-04-25T02:00:55;99709.44;;;3.38;100.00
71476;BME280;59286;59.274;17.974;2023-04-25T02:03:20;99706.84;;;3.38;100.00
71476;BME280;59286;59.274;17.974;2023-04-25T02:05:45;99713.59;;;3.39;100.00
71476;BME280;59286;59.274;17.974;2023-04-25T02:08:11;99713.03;;;3.42;100.00
71476;BME280;59286;59.274;17.974;2023-04-25T02:10:36;99709.44;;;3.38;100.00
71476;BME280;59286;59.274;17.974;2023-04-25T02:13:02;99696.75;;;3.37;100.00
71476;BME280;59286;59.274;17.974;2023-04-25T02:15:29;99697.56;;;3.32;100.00
71476;BME280;59286;59.274;17.974;2023-04-25T02:17:54;99697.59;;;3.27;100.00
71476;BME280;59286;59.274;17.974;2023-04-25T02:20:21;99694.72;;;3.34;100.00
71476;BME280;59286;59.274;17.974;2023-04-25T02:22:47;99688.75;;;3.33;100.00
71476;BME280;59286;59.274;17.974;2023-04-25T02:25:12;99687.94;;;3.38;100.00
71476;BME280;59286;59.274;17.974;2023-04-25T02:27:38;99684.34;;;3.34;100.00
71476;BME280;59286;59.274;17.974;2023-04-25T02:30:04;99678.91;;;3.30;100.00
71476;BME280;59286;59.274;17.974;2023-04-25T02:32:30;99670.91;;;3.27;100.00
71476;BME280;59286;59.274;17.974;2023-04-25T02:34:55;99672.22;;;3.29;100.00
71476;BME280;59286;59.274;17.974;2023-04-25T02:37:23;99679.19;;;3.29;100.00
71476;BME280;59286;59.274;17.974;2023-04-25T02:39:49;99662.13;;;3.23;100.00
71476;BME280;59286;59.274;17.974;2023-04-25T02:42:14;99658.25;;;3.25;100.00
71476;BME280;59286;59.274;17.974;2023-04-25T02:44:40;99639.38;;;3.20;100.00
71476;BME280;59286;59.274;17.974;2023-04-25T02:47:05;99639.59;;;3.23;100.00
71476;BME280;59286;59.274;17.974;2023-04-25T02:49:31;99642.75;;;3.20;100.00
71476;BME280;59286;59.274;17.974;2023-04-25T02:51:56;99646.63;;;3.18;100.00
71476;BME280;59286;59.274;17.974;2023-04-25T02:54:21;99640.94;;;3.16;100.00
71476;BME280;59286;59.274;17.974;2023-04-25T02:56:47;99639.88;;;3.22;100.00
71476;BME280;59286;59.274;17.974;2023-04-25T02:59:12;99631.88;;;3.18;100.00
71476;BME280;59286;59.274;17.974;2023-04-25T03:01:37;99614.06;;;3.12;100.00
71476;BME280;59286;59.274;17.974;2023-04-25T03:04:03;99634.44;;;3.23;100.00
71476;BME280;59286;59.274;17.974;2023-04-25T03:06:28;99632.91;;;3.17;100.00
71476;BME280;59286;59.274;17.974;2023-04-25T03:08:53;99619.72;;;3.19;100.00
71476;BME280;59286;59.274;17.974;2023-04-25T03:11:19;99612.47;;;3.21;100.00
71476;BME280;59286;59.274;17.974;2023-04-25T03:13:45;99600.59;;;3.15;100.00
71476;BME280;59286;59.274;17.974;2023-04-25T03:16:10;99604.72;;;3.16;100.00
71476;BME280;59286;59.274;17.974;2023-04-25T03:18:36;99624.63;;;3.20;100.00
71476;BME280;59286;59.274;17.974;2023-04-25T03:21:01;99616.13;;;3.15;100.00
71476;BME280;59286;59.274;17.974;2023-04-25T03:23:26;99604.00;;;3.05;100.00
71476;BME280;59286;59.274;17.974;2023-04-25T03:25:52;99608.06;;;3.16;100.00
71476;BME280;59286;59.274;17.974;2023-04-25T03:28:17;99607.06;;;3.12;100.00
71476;BME280;59286;59.274;17.974;2023-04-25T03:30:43;99604.75;;;3.11;100.00
71476;BME280;59286;59.274;17.974;2023-04-25T03:33:08;99604.25;;;3.09;100.00
71476;BME280;59286;59.274;17.974;2023-04-25T03:35:33;99607.28;;;3.16;100.00
71476;BME280;59286;59.274;17.974;2023-04-25T03:37:59;99603.97;;;3.10;100.00
71476;BME280;59286;59.274;17.974;2023-04-25T03:40:24;99587.66;;;3.10;100.00
71476;BME280;59286;59.274;17.974;2023-04-25T03:42:49;99590.53;;;3.08;100.00
71476;BME280;59286;59.274;17.974;2023-04-25T03:45:15;99592.53;;;3.16;100.00
71476;BME280;59286;59.274;17.974;2023-04-25T03:47:40;99593.56;;;3.20;100.00
71476;BME280;59286;59.274;17.974;2023-04-25T03:50:06;99575.22;;;3.12;100.00
71476;BME280;59286;59.274;17.974;2023-04-25T03:52:31;99566.88;;;3.20;100.00
71476;BME280;59286;59.274;17.974;2023-04-25T03:54:56;99574.38;;;3.21;100.00
71476;BME280;59286;59.274;17.974;2023-04-25T03:57:22;99558.34;;;3.19;100.00
71476;BME280;59286;59.274;17.974;2023-04-25T03:59:47;99541.31;;;3.13;100.00
71476;BME280;59286;59.274;17.974;2023-04-25T04:02:12;99549.59;;;3.15;100.00
71476;BME280;59286;59.274;17.974;2023-04-25T04:04:38;99548.72;;;3.25;100.00
71476;BME280;59286;59.274;17.974;2023-04-25T04:07:03;99547.69;;;3.26;100.00
71476;BME280;59286;59.274;17.974;2023-04-25T04:09:28;99551.31;;;3.25;100.00
71476;BME280;59286;59.274;17.974;2023-04-25T04:11:54;99517.53;;;3.11;100.00
71476;BME280;59286;59.274;17.974;2023-04-25T04:14:19;99542.19;;;3.32;100.00
71476;BME280;59286;59.274;17.974;2023-04-25T04:16:45;99534.38;;;3.37;100.00
71476;BME280;59286;59.274;17.974;2023-04-25T04:19:10;99548.09;;;3.38;100.00
71476;BME280;59286;59.274;17.974;2023-04-25T04:21:36;99559.22;;;3.38;100.00
71476;BME280;59286;59.274;17.974;2023-04-25T04:24:01;99554.84;;;3.39;100.00
71476;BME280;59286;59.274;17.974;2023-04-25T04:26:26;99558.66;;;3.46;100.00
71476;BME280;59286;59.274;17.974;2023-04-25T04:28:52;99543.38;;;3.45;100.00
71476;BME280;59286;59.274;17.974;2023-04-25T04:31:22;99551.41;;;3.43;100.00
71476;BME280;59286;59.274;17.974;2023-04-25T04:33:47;99554.97;;;3.52;100.00
71476;BME280;59286;59.274;17.974;2023-04-25T04:36:13;99563.00;;;3.51;100.00
71476;BME280;59286;59.274;17.974;2023-04-25T04:38:39;99566.28;;;3.61;100.00
71476;BME280;59286;59.274;17.974;2023-04-25T04:41:05;99563.72;;;3.56;100.00
71476;BME280;59286;59.274;17.974;2023-04-25T04:43:30;99581.28;;;3.64;100.00
71476;BME280;59286;59.274;17.974;2023-04-25T04:45:57;99575.09;;;3.60;100.00
71476;BME280;59286;59.274;17.974;2023-04-25T04:48:23;99573.06;;;3.57;100.00
71476;BME280;59286;59.274;17.974;2023-04-25T04:50:49;99572.59;;;3.50;100.00
71476;BME280;59286;59.274;17.974;2023-04-25T04:53:14;99556.00;;;3.51;100.00
71476;BME280;59286;59.274;17.974;2023-04-25T04:55:40;99556.97;;;3.60;100.00
71476;BME280;59286;59.274;17.974;2023-04-25T04:58:08;99560.03;;;3.62;100.00
71476;BME280;59286;59.274;17.974;2023-04-25T05:00:34;99564.38;;;3.72;100.00
71476;BME280;59286;59.274;17.974;2023-04-25T05:02:59;99569.03;;;3.70;100.00
71476;BME280;59286;59.274;17.974;2023-04-25T05:05:25;99559.59;;;3.55;100.00
71476;BME280;59286;59.274;17.974;2023-04-25T05:07:50;99559.31;;;3.57;100.00
71476;BME280;59286;59.274;17.974;2023-04-25T05:10:17;99555.09;;;3.66;100.00
71476;BME280;59286;59.274;17.974;2023-04-25T05:12:43;99549.38;;;3.69;100.00
71476;BME280;59286;59.274;17.974;2023-04-25T05:15:09;99543.84;;;3.75;100.00
71476;BME280;59286;59.274;17.974;2023-04-25T05:17:35;99537.63;;;3.76;100.00
71476;BME280;59286;59.274;17.974;2023-04-25T05:20:00;99538.66;;;3.75;100.00
71476;BME280;59286;59.274;17.974;2023-04-25T05:22:25;99536.63;;;3.72;100.00
71476;BME280;59286;59.274;17.974;2023-04-25T05:24:51;99540.25;;;3.71;100.00
71476;BME280;59286;59.274;17.974;2023-04-25T05:27:17;99547.00;;;3.72;100.00
71476;BME280;59286;59.274;17.974;2023-04-25T05:29:43;99544.56;;;3.81;100.00
71476;BME280;59286;59.274;17.974;2023-04-25T05:32:08;99532.19;;;3.78;100.00
71476;BME280;59286;59.274;17.974;2023-04-25T05:34:34;99533.88;;;3.87;100.00
71476;BME280;59286;59.274;17.974;2023-04-25T05:36:59;99536.47;;;3.87;100.00
71476;BME280;59286;59.274;17.974;2023-04-25T05:39:25;99535.00;;;3.81;100.00
71476;BME280;59286;59.274;17.974;2023-04-25T05:41:51;99523.69;;;3.72;100.00
71476;BME280;59286;59.274;17.974;2023-04-25T05:44:16;99532.41;;;3.81;100.00
71476;BME280;59286;59.274;17.974;2023-04-25T05:46:42;99531.09;;;3.84;100.00
71476;BME280;59286;59.274;17.974;2023-04-25T05:49:07;99533.44;;;3.80;100.00
71476;BME280;59286;59.274;17.974;2023-04-25T05:51:33;99534.78;;;3.78;100.00
71476;BME280;59286;59.274;17.974;2023-04-25T05:53:58;99529.41;;;3.69;100.00
71476;BME280;59286;59.274;17.974;2023-04-25T05:56:23;99536.78;;;3.81;100.00
71476;BME280;59286;59.274;17.974;2023-04-25T05:58:49;99527.72;;;3.83;100.00
71476;BME280;59286;59.274;17.974;2023-04-25T06:01:14;99514.41;;;3.66;100.00
71476;BME280;59286;59.274;17.974;2023-04-25T06:03:39;99522.69;;;3.92;100.00
71476;BME280;59286;59.274;17.974;2023-04-25T06:06:08;99517.84;;;3.85;100.00
71476;BME280;59286;59.274;17.974;2023-04-25T06:08:33;99513.31;;;3.96;100.00
71476;BME280;59286;59.274;17.974;2023-04-25T06:10:58;99537.63;;;4.00;100.00
71476;BME280;59286;59.274;17.974;2023-04-25T06:13:24;99536.91;;;3.94;100.00
71476;BME280;59286;59.274;17.974;2023-04-25T06:15:49;99525.22;;;3.97;100.00
71476;BME280;59286;59.274;17.974;2023-04-25T06:18:15;99537.78;;;4.09;100.00
71476;BME280;59286;59.274;17.974;2023-04-25T06:20:40;99509.28;;;3.85;100.00
71476;BME280;59286;59.274;17.974;2023-04-25T06:23:05;99527.88;;;4.16;100.00
71476;BME280;59286;59.274;17.974;2023-04-25T06:25:31;99513.34;;;4.15;100.00
71476;BME280;59286;59.274;17.974;2023-04-25T06:27:56;99526.91;;;4.30;100.00
71476;BME280;59286;59.274;17.974;2023-04-25T06:30:21;99521.34;;;4.37;100.00
71476;BME280;59286;59.274;17.974;2023-04-25T06:32:50;99519.34;;;4.34;100.00
71476;BME280;59286;59.274;17.974;2023-04-25T06:35:16;99501.78;;;4.26;100.00
71476;BME280;59286;59.274;17.974;2023-04-25T06:37:41;99516.75;;;4.34;100.00
71476;BME280;59286;59.274;17.974;2023-04-25T06:40:07;99515.88;;;4.38;100.00
71476;BME280;59286;59.274;17.974;2023-04-25T06:42:32;99515.06;;;4.43;100.00
71476;BME280;59286;59.274;17.974;2023-04-25T06:44:58;99532.19;;;4.44;100.00
71476;BME280;59286;59.274;17.974;2023-04-25T06:47:23;99534.53;;;4.40;100.00
71476;BME280;59286;59.274;17.974;2023-04-25T06:49:49;99532.09;;;4.49;100.00
71476;BME280;59286;59.274;17.974;2023-04-25T06:52:15;99530.50;;;4.53;100.00
71476;BME280;59286;59.274;17.974;2023-04-25T06:54:40;99528.66;;;4.53;100.00
71476;BME280;59286;59.274;17.974;2023-04-25T06:57:06;99524.47;;;4.57;100.00
71476;BME280;59286;59.274;17.974;2023-04-25T06:59:31;99527.75;;;4.63;100.00
71476;BME280;59286;59.274;17.974;2023-04-25T07:01:57;99534.63;;;4.72;100.00
71476;BME280;59286;59.274;17.974;2023-04-25T07:04:23;99542.06;;;4.79;99.78
71476;BME280;59286;59.274;17.974;2023-04-25T07:06:48;99533.22;;;4.80;100.00
71476;BME280;59286;59.274;17.974;2023-04-25T07:09:14;99551.38;;;4.99;100.00
71476;BME280;59286;59.274;17.974;2023-04-25T07:11:40;99549.47;;;5.04;99.70
71476;BME280;59286;59.274;17.974;2023-04-25T07:14:06;99554.88;;;5.08;99.77
71476;BME280;59286;59.274;17.974;2023-04-25T07:16:31;99558.00;;;5.23;99.03
71476;BME280;59286;59.274;17.974;2023-04-25T07:18:56;99542.53;;;5.18;98.74
71476;BME280;59286;59.274;17.974;2023-04-25T07:21:22;99544.63;;;5.16;98.15
71476;BME280;59286;59.274;17.974;2023-04-25T07:23:47;99537.97;;;5.10;98.25
71476;BME280;59286;59.274;17.974;2023-04-25T07:26:13;99552.63;;;5.20;98.91
71476;BME280;59286;59.274;17.974;2023-04-25T07:28:38;99551.50;;;5.26;99.48
71476;BME280;59286;59.274;17.974;2023-04-25T07:31:03;99531.63;;;5.16;97.83
71476;BME280;59286;59.274;17.974;2023-04-25T07:33:29;99571.53;;;5.39;97.77
71476;BME280;59286;59.274;17.974;2023-04-25T07:35:54;99559.00;;;5.41;98.09
71476;BME280;59286;59.274;17.974;2023-04-25T07:38:20;99563.84;;;5.47;97.97
71476;BME280;59286;59.274;17.974;2023-04-25T07:40:47;99564.09;;;5.64;97.77
71476;BME280;59286;59.274;17.974;2023-04-25T07:43:13;99558.00;;;5.69;98.14
71476;BME280;59286;59.274;17.974;2023-04-25T07:45:41;99565.81;;;5.69;96.79
71476;BME280;59286;59.274;17.974;2023-04-25T07:48:07;99563.81;;;5.79;98.73
71476;BME280;59286;59.274;17.974;2023-04-25T07:50:33;99579.75;;;5.92;98.41
71476;BME280;59286;59.274;17.974;2023-04-25T07:52:58;99555.94;;;5.84;98.45
71476;BME280;59286;59.274;17.974;2023-04-25T07:55:23;99567.13;;;5.99;98.64
71476;BME280;59286;59.274;17.974;2023-04-25T07:57:49;99568.56;;;6.05;96.95
71476;BME280;59286;59.274;17.974;2023-04-25T08:00:14;99569.53;;;6.22;96.26
71476;BME280;59286;59.274;17.974;2023-04-25T08:02:40;99560.47;;;6.33;94.68
71476;BME280;59286;59.274;17.974;2023-04-25T08:05:05;99571.63;;;6.47;95.81
71476;BME280;59286;59.274;17.974;2023-04-25T08:07:33;99567.41;;;6.38;96.67
71476;BME280;59286;59.274;17.974;2023-04-25T08:09:59;99562.66;;;6.40;97.05
71476;BME280;59286;59.274;17.974;2023-04-25T08:12:24;99564.72;;;6.43;95.19
71476;BME280;59286;59.274;17.974;2023-04-25T08:14:50;99562.94;;;6.52;93.54
71476;BME280;59286;59.274;17.974;2023-04-25T08:17:15;99562.34;;;6.55;93.35
71476;BME280;59286;59.274;17.974;2023-04-25T08:19:40;99564.09;;;6.59;93.93
71476;BME280;59286;59.274;17.974;2023-04-25T08:22:06;99565.19;;;6.45;94.92
71476;BME280;59286;59.274;17.974;2023-04-25T08:24:31;99570.09;;;6.60;94.26
71476;BME280;59286;59.274;17.974;2023-04-25T08:26:56;99562.94;;;6.52;96.61
71476;BME280;59286;59.274;17.974;2023-04-25T08:29:23;99584.50;;;6.66;96.71
71476;BME280;59286;59.274;17.974;2023-04-25T08:31:50;99577.59;;;6.61;96.09
71476;BME280;59286;59.274;17.974;2023-04-25T08:34:17;99574.88;;;6.66;95.94
71476;BME280;59286;59.274;17.974;2023-04-25T08:36:43;99585.66;;;6.73;96.12
71476;BME280;59286;59.274;17.974;2023-04-25T08:39:08;99596.63;;;6.84;95.94
71476;BME280;59286;59.274;17.974;2023-04-25T08:41:36;99603.38;;;6.85;94.11
71476;BME280;59286;59.274;17.974;2023-04-25T08:44:03;99596.34;;;6.85;95.85
71476;BME280;59286;59.274;17.974;2023-04-25T08:46:29;99603.19;;;6.81;96.69
71476;BME280;59286;59.274;17.974;2023-04-25T08:49:01;99591.81;;;6.77;96.72
71476;BME280;59286;59.274;17.974;2023-04-25T08:51:26;99601.06;;;6.83;96.64
71476;BME280;59286;59.274;17.974;2023-04-25T08:53:53;99602.69;;;6.93;96.47
71476;BME280;59286;59.274;17.974;2023-04-25T08:56:19;99594.84;;;7.07;97.90
71476;BME280;59286;59.274;17.974;2023-04-25T08:58:49;99605.00;;;7.39;98.22
71476;BME280;59286;59.274;17.974;2023-04-25T09:01:18;99611.44;;;7.55;97.24
71476;BME280;59286;59.274;17.974;2023-04-25T09:03:44;99612.59;;;7.71;95.80
71476;BME280;59286;59.274;17.974;2023-04-25T09:06:10;99615.88;;;7.85;95.93
71476;BME280;59286;59.274;17.974;2023-04-25T09:08:37;99609.63;;;7.95;94.63
71476;BME280;59286;59.274;17.974;2023-04-25T09:11:02;99595.53;;;7.96;95.93
71476;BME280;59286;59.274;17.974;2023-04-25T09:13:28;99599.63;;;7.88;92.17
71476;BME280;59286;59.274;17.974;2023-04-25T09:15:55;99619.38;;;7.80;94.49
71476;BME280;59286;59.274;17.974;2023-04-25T09:18:32;99610.47;;;7.81;93.68
71476;BME280;59286;59.274;17.974;2023-04-25T09:21:08;99618.19;;;7.87;94.63
71476;BME280;59286;59.274;17.974;2023-04-25T09:23:46;99620.06;;;7.95;95.76
71476;BME280;59286;59.274;17.974;2023-04-25T09:26:19;99622.56;;;8.00;94.87
71476;BME280;59286;59.274;17.974;2023-04-25T09:28:45;99622.81;;;7.90;94.86
71476;BME280;59286;59.274;17.974;2023-04-25T09:31:21;99616.06;;;7.89;96.26
71476;BME280;59286;59.274;17.974;2023-04-25T09:33:47;99625.63;;;8.02;94.52
71476;BME280;59286;59.274;17.974;2023-04-25T09:36:12;99626.28;;;8.16;94.81
71476;BME280;59286;59.274;17.974;2023-04-25T09:38:44;99618.28;;;8.04;94.61
71476;BME280;59286;59.274;17.974;2023-04-25T09:41:11;99628.28;;;8.10;94.27
71476;BME280;59286;59.274;17.974;2023-04-25T09:43:37;99624.78;;;8.15;93.02
71476;BME280;59286;59.274;17.974;2023-04-25T09:46:08;99640.50;;;8.32;93.47
71476;BME280;59286;59.274;17.974;2023-04-25T09:48:33;99642.44;;;8.57;94.24
71476;BME280;59286;59.274;17.974;2023-04-25T09:51:14;99640.34;;;8.76;93.52
71476;BME280;59286;59.274;17.974;2023-04-25T09:53:42;99637.44;;;8.95;92.13
71476;BME280;59286;59.274;17.974;2023-04-25T09:56:10;99628.66;;;8.99;91.92
71476;BME280;59286;59.274;17.974;2023-04-25T09:58:40;99647.59;;;9.13;89.36
71476;BME280;59286;59.274;17.974;2023-04-25T10:01:07;99640.50;;;9.14;88.74
71476;BME280;59286;59.274;17.974;2023-04-25T10:03:35;99654.22;;;9.19;89.14
71476;BME280;59286;59.274;17.974;2023-04-25T10:06:03;99647.72;;;9.08;90.63
71476;BME280;59286;59.274;17.974;2023-04-25T10:08:34;99650.19;;;8.96;89.55
71476;BME280;59286;59.274;17.974;2023-04-25T10:11:01;99650.50;;;8.95;92.09
71476;BME280;59286;59.274;17.974;2023-04-25T10:13:29;99650.81;;;8.93;91.22
71476;BME280;59286;59.274;17.974;2023-04-25T10:15:57;99656.78;;;8.94;91.37
71476;BME280;59286;59.274;17.974;2023-04-25T10:18:24;99665.44;;;9.11;91.58
71476;BME280;59286;59.274;17.974;2023-04-25T10:20:49;99659.28;;;9.16;90.81
71476;BME280;59286;59.274;17.974;2023-04-25T10:23:15;99645.28;;;9.03;90.28
71476;BME280;59286;59.274;17.974;2023-04-25T10:25:42;99665.28;;;9.16;90.61
71476;BME280;59286;59.274;17.974;2023-04-25T10:28:08;99658.97;;;9.17;90.39
71476;BME280;59286;59.274;17.974;2023-04-25T10:30:33;99654.97;;;9.20;90.86
71476;BME280;59286;59.274;17.974;2023-04-25T10:32:59;99671.13;;;9.39;91.11
71476;BME280;59286;59.274;17.974;2023-04-25T10:35:27;99660.97;;;9.37;90.17
71476;BME280;59286;59.274;17.974;2023-04-25T10:38:13;99663.28;;;9.39;90.47
71476;BME280;59286;59.274;17.974;2023-04-25T10:40:39;99663.72;;;9.49;91.28
71476;BME280;59286;59.274;17.974;2023-04-25T10:43:42;99662.78;;;9.62;91.08
71476;BME280;59286;59.274;17.974;2023-04-25T10:46:19;99680.75;;;9.81;90.06
71476;BME280;59286;59.274;17.974;2023-04-25T10:48:51;99670.16;;;9.77;88.91
71476;BME280;59286;59.274;17.974;2023-04-25T10:51:26;99668.78;;;9.71;88.06
71476;BME280;59286;59.274;17.974;2023-04-25T10:56:21;99663.53;;;9.71;88.55
71476;BME280;59286;59.274;17.974;2023-04-25T10:58:48;99671.06;;;9.82;89.56
71476;BME280;59286;59.274;17.974;2023-04-25T11:01:14;99686.16;;;9.85;88.88
71476;BME280;59286;59.274;17.974;2023-04-25T11:03:43;99684.31;;;9.85;88.64
71476;BME280;59286;59.274;17.974;2023-04-25T11:06:30;99677.97;;;9.95;89.95
71476;BME280;59286;59.274;17.974;2023-04-25T11:09:00;99674.72;;;9.98;87.38
71476;BME280;59286;59.274;17.974;2023-04-25T11:11:28;99679.66;;;9.91;87.48
71476;BME280;59286;59.274;17.974;2023-04-25T11:13:54;99680.75;;;9.90;87.35
71476;BME280;59286;59.274;17.974;2023-04-25T11:16:23;99685.34;;;10.10;88.91
71476;BME280;59286;59.274;17.974;2023-04-25T11:18:49;99681.50;;;10.16;86.96
71476;BME280;59286;59.274;17.974;2023-04-25T11:21:15;99674.25;;;10.21;87.01
71476;BME280;59286;59.274;17.974;2023-04-25T11:23:41;99684.16;;;10.45;87.36
71476;BME280;59286;59.274;17.974;2023-04-25T11:26:10;99686.28;;;10.51;86.76
71476;BME280;59286;59.274;17.974;2023-04-25T11:28:35;99687.22;;;10.47;86.10
71476;BME280;59286;59.274;17.974;2023-04-25T11:31:02;99698.94;;;10.49;86.45
71476;BME280;59286;59.274;17.974;2023-04-25T11:33:27;99691.22;;;10.53;86.30
71476;BME280;59286;59.274;17.974;2023-04-25T11:35:54;99683.22;;;10.41;85.75
71476;BME280;59286;59.274;17.974;2023-04-25T11:38:21;99691.00;;;10.29;85.26
71476;BME280;59286;59.274;17.974;2023-04-25T11:40:53;99689.66;;;10.14;86.87
71476;BME280;59286;59.274;17.974;2023-04-25T11:43:22;99692.72;;;10.25;85.50
71476;BME280;59286;59.274;17.974;2023-04-25T11:45:48;99679.94;;;10.06;86.99
71476;BME280;59286;59.274;17.974;2023-04-25T11:48:14;99679.94;;;10.06;86.45
71476;BME280;59286;59.274;17.974;2023-04-25T11:50:40;99690.28;;;10.11;86.78
71476;BME280;59286;59.274;17.974;2023-04-25T11:53:05;99675.81;;;9.97;85.71
71476;BME280;59286;59.274;17.974;2023-04-25T11:55:31;99689.53;;;9.94;86.40
71476;BME280;59286;59.274;17.974;2023-04-25T11:57:59;99686.28;;;9.97;86.09
71476;BME280;59286;59.274;17.974;2023-04-25T12:00:25;99679.50;;;10.04;87.32
71476;BME280;59286;59.274;17.974;2023-04-25T12:02:55;99690.72;;;10.13;86.29
71476;BME280;59286;59.274;17.974;2023-04-25T12:05:30;99696.75;;;10.14;86.38
71476;BME280;59286;59.274;17.974;2023-04-25T12:08:08;99695.97;;;10.22;86.90
71476;BME280;59286;59.274;17.974;2023-04-25T12:10:37;99686.53;;;10.29;85.81
71476;BME280;59286;59.274;17.974;2023-04-25T12:13:18;99682.38;;;10.28;84.74
71476;BME280;59286;59.274;17.974;2023-04-25T12:15:43;99687.06;;;10.14;86.13
71476;BME280;59286;59.274;17.974;2023-04-25T12:18:09;99661.81;;;9.93;86.83
71476;BME280;59286;59.274;17.974;2023-04-25T12:20:35;99681.50;;;10.16;86.24
71476;BME280;59286;59.274;17.974;2023-04-25T12:23:00;99668.09;;;10.09;86.64
71476;BME280;59286;59.274;17.974;2023-04-25T12:25:44;99684.41;;;10.23;85.33
71476;BME280;59286;59.274;17.974;2023-04-25T12:28:20;99702.88;;;10.26;85.52
71476;BME280;59286;59.274;17.974;2023-04-25T12:33:18;99707.63;;;10.33;85.46
71476;BME280;59286;59.274;17.974;2023-04-25T12:35:43;99695.19;;;10.21;84.73
71476;BME280;59286;59.274;17.974;2023-04-25T12:38:08;99689.03;;;10.17;84.85
71476;BME280;59286;59.274;17.974;2023-04-25T12:40:33;99689.91;;;10.30;85.99
71476;BME280;59286;59.274;17.974;2023-04-25T12:42:59;99687.28;;;10.30;83.72
71476;BME280;59286;59.274;17.974;2023-04-25T12:45:25;99698.22;;;10.32;83.17
71476;BME280;59286;59.274;17.974;2023-04-25T12:47:50;99701.25;;;10.42;84.61
71476;BME280;59286;59.274;17.974;2023-04-25T12:50:16;99685.69;;;10.46;83.98
71476;BME280;59286;59.274;17.974;2023-04-25T12:52:41;99687.41;;;10.71;83.76
71476;BME280;59286;59.274;17.974;2023-04-25T12:55:06;99688.72;;;10.86;81.58